AirNav   Air Wisconsin Up To $57,000 Bonus
 
 671 users online  

SC90 Do-Little Field Airport
St Matthews, South Carolina, USA

GOING TO ST MATTHEWS?


FAA INFORMATION EFFECTIVE 02 JANUARY 2020

Location

FAA Identifier: SC90
Lat/Long: 33-40-35.7300N 080-56-53.3300W
33-40.595500N 080-56.888833W
33.6765917,-80.9481472
(estimated)
Elevation: 369 ft. / 112 m (estimated)
Variation: 05W (1990)
From city: 9 miles W of ST. MATTHEWS, SC
Time zone: UTC -5 (UTC -4 during Daylight Saving Time)
Zip code: 29135

Airport Operations

Airport use: Private use. Permission required prior to landing
Activation date: 06/1993
Control tower: no
ARTCC: JACKSONVILLE CENTER
FSS: ANDERSON FLIGHT SERVICE STATION
Attendance: UNATNDD
Wind indicator: yes
Segmented circle: no

Airport Communications

WX ASOS at OGB (14 nm S): 118.525 (803-536-3901)
WX ASOS at CUB (18 nm N): 118.675 (803-929-0665)
WX ASOS at CAE (18 nm NW): 120.15 (803-822-4168)

Nearby radio navigation aids

VOR radial/distance  VOR name  Freq  Var
CAEr156/12.1COLUMBIA VORTAC114.7002W
MMTr214/16.5MC ENTIRE VORTAC113.2008W
VANr302/27.7VANCE VORTAC110.4006W

 
NDB name  Hdg/Dist  Freq  Var  ID
SUMTER244/34.925207WSMS ... -- ...
AIKEN094/36.434706WAIK .- .. -.-
MANNING284/37.438106WMNI -- -. ..

Airport Services

Runway Information

Runway 14/32

Dimensions: 3200 x 100 ft. / 975 x 30 m
Surface: turf
RUNWAY 14  RUNWAY 32
Traffic pattern: leftright

Airport Ownership and Management from official FAA records

Ownership: Privately-owned
Owner: DO-LITTLE FIELD INC
160 DO LITTLE LANE
ST MATTHEWS, SC 29135
Phone 803-874-4281
Manager: BILL MITCHELL
35 DOOLITTLE LN
ST MATTHEWS, SC 29135
Phone 803-874-1310

Airport Operational Statistics

Aircraft based on the field: 9
Single engine airplanes: 9
    

Additional Remarks

FOR CD CTC COLUMBIA APCH AT 803-822-5242 OR 803-822-5040.

Instrument Procedures

There are no published instrument procedures at SC90.

Some nearby airports with instrument procedures:

KXNO - North Air Force Auxiliary Field (8 nm SW)
KOGB - Orangeburg Municipal Airport (14 nm S)
KMMT - Mc Entire Joint National Guard Base (16 nm NE)
6J0 - Lexington County Airport (16 nm NW)
KCUB - Jim Hamilton L B Owens Airport (18 nm N)
KCAE - Columbia Metropolitan Airport (18 nm NW)
 
Loc | Ops | Rwys | IFR | FBO | Links
Com | Nav | Svcs | Stats | Notes
Area around SC90 (Do-Little Field Airport)
 
Road maps at: MapQuest Bing Google
 
Aerial photo
WARNING: Photo may not be current or correct
Aerial photo of SC90 (Do-Little Field Airport)
Photo by Eddie Price
Photo taken 10-Nov-2012
looking west.

Do you have a better or more recent aerial photo of Do-Little Field Airport that you would like to share? If so, please send us your photo.

 
Sectional chart

 
Airport distance calculator
Flying to Do-Little Field Airport? Find the distance to fly.

From to SC90

Sunrise and sunset
Times for 20-Jan-2020
 Local
(UTC-5)
 Zulu
(UTC)
Morning civil twilight07:0112:01
Sunrise07:2812:28
Sunset17:4222:42
Evening civil twilight18:0923:09

Current date and time
Zulu (UTC)  20-Jan-2020 12:50:55
Local (UTC-5)  20-Jan-2020 07:50:55
 
METAR
KXNO 
8nm SW 
201156Z AUTO 36005KT 10SM CLR M02/M11 A3028 RMK AO2 SLP259 70002 T10201108 10041 21020 52023 $
KOGB 
14nm S 
201153Z AUTO 02008KT 10SM CLR 00/M09 A3028 RMK AO2 SLP253 70001 T00001089 10056 20000 53025
KMMT 
17nm NE 
201156Z AUTO 00000KT 10SM CLR M02/M09 A3029 RMK AO2 SLP262 70003 T10211090 10040 21021 52021 $
KCAE 
18nm NW 
201156Z 36004KT 10SM CLR M01/M09 A3029 RMK AO2 SLP258 T10061089 10044 21006 53022
KCUB 
18nm N 
201153Z AUTO 00000KT 10SM CLR M01/M09 A3030 RMK AO2 SLP262 T10061089 10050 21006 53021
TAF
KOGB 
14nm S 
201125Z 2012/2112 01008KT P6SM SKC FM201300 01010G15KT P6SM FEW250 FM201900 01008KT P6SM FEW250 FM210000 01005KT P6SM FEW060
KMMT 
17nm NE 
200800Z 2008/2114 02009KT 9999 FEW200 QNH3004INS BECMG 2014/2015 36010G15KT 9999 FEW200 QNH3012INS BECMG 2100/2101 05006KT 9999 FEW200 QNH3039INS TX09/2021Z TNM02/2108Z
KCAE 
18nm NW 
201125Z 2012/2112 01008KT P6SM SKC FM201300 01010G15KT P6SM FEW250 FM201900 01008KT P6SM FEW250 FM210000 01005KT P6SM FEW060
KCUB 
18nm N 
201125Z 2012/2112 01006KT P6SM SKC FM201300 01008G14KT P6SM FEW250 FM201900 01007KT P6SM FEW250 FM210000 01004KT P6SM FEW060
NOTAMs
Click for the latest NOTAMs
NOTAMs are issued by the DoD/FAA and will open in a separate window not controlled by AirNav.

 

 
 

Would you like to see your business listed on this page?

 If your business provides an interesting product or service to pilots, flight crews, aircraft, or users of the Do-Little Field Airport, you should consider listing it here.  To start the listing process, click on the button below
 
Add a business
 

Other Pages about Do-Little Field Airport

Update a link
 
Copyright © AirNav, LLC. All rights reserved. Privacy Policy  Contact